Terminal Aerodrome Forecast
Issued by NWS

Home | Current Version | Previous Version | Text Only | Print | Product List | Glossary On
Versions: 1 2 3 4 5 6 7 8 9 10 11 12 13 14 15
000
FTUS45 KPIH 281100
TAFSUN
TAF
KSUN 281136Z 2812/2912 VRB05KT 1SM -SN BKN005 OVC010
     FM281400 31008KT 6SM -SN BKN020
     FM281600 15005KT P6SM SCT020 BKN080
     FM290200 30006KT P6SM SCT020 BKN100
      AMD LTD TO CLD VIS AND WIND TIL 281400=

USA.gov is the U.S. government's official web portal to all federal, state and local government web resources and services.